Muir Army Air Field (Fort Indiantown Gap) Airport
KMUI : now visible

Airfield :











YOU CAN JOIN US ON...

 
LOGIN :

Register | Disclaimer

   EN    FR    IT 

 









Legend :    VFR   Marginal VFR   IFR   Intensive IFR   Very Intensive IFR
Visi :
Ceiling :
>= 8 km
>= 3000ft
5 to 8 km
1000 to 3000 ft
1500m to 5 km
500 to 1000 ft
800 to 1500m
200 to 500 ft
< 800m
< 200 ft
Symbols :   Thunderstorms  Fog  Heavy snow  Heavy precipitations  Wind > 20 kt







- Airport Elevation : 488 ft


KMUI - Muir Army Air Field (Fort Indiantown Gap)

CURRENT METAR :
  • 200856Z AUTO 00000KT 10SM CLR 06/05 A3029 RMK AO2 SLP260 T00550046 53002

EXPIRED METARs :
  • 200756Z AUTO 00000KT 10SM CLR 06/05 A3028 RMK AO2 SLP257 T00620053
  • 200656Z AUTO 00000KT 10SM CLR 07/06 A3028 RMK AO2 SLP257 T00680057

TAF TAF KMUI
Valid from the 19 at 19:00 until the 21 at 01:00 UTC


191900Z 1919/2101 VRB06KT 9999 FEW250 QNH3022INS TX26/2019Z TN06/2010Z LAST NO AMDS AFT 2004 NEXT 2011
No reported NOTAMs for that airfield.



MET'MAP, your aeronautical weather chart ! - Copyright ORBIFLY December 2007 - Disclaimer

ORBIFLY MET'MAP TEAM :

Programming & Development : Alexandra Zaïnal
Concept & Development : Baudouin d'Aumeries
Co-Development & Prog : Marc-Olivier Méhu
Technical & hardware support : Manuel Goepfert

Contact : metmap@orbifly.com




SOURCES & CREDITS :

   NOAA       Earth
Advisory